Time;durP1;ratioP1;P1;durP2;ratioP2;P2;SDS_P1;SDS_P2;PMS_P1;PMS_P2;Temp;Humidity;BMP_temperature;BMP_pressure;BME280_temperature;BME280_humidity;BME280_pressure;Samples;Min_cycle;Max_cycle;Signal;HPM_P1;HPM_P2
2022/02/23 00:01:33;;;;;;;7.40;2.17;;;9.60;99.90;;;;;;6043034;23;20413;-84
2022/02/23 00:04:20;;;;;;;8.07;2.43;;;9.60;99.90;;;;;;6043269;23;20417;-86
2022/02/23 00:07:03;;;;;;;8.80;2.60;;;9.60;99.90;;;;;;6066333;23;20413;-84
2022/02/23 00:09:53;;;;;;;8.50;3.27;;;9.60;99.90;;;;;;6015181;23;20701;-84
2022/02/23 00:12:28;;;;;;;10.93;3.57;;;9.60;99.90;;;;;;6044660;23;20468;-87
2022/02/23 00:15:15;;;;;;;8.03;2.40;;;9.60;99.90;;;;;;6045330;23;20480;-84
2022/02/23 00:21:18;;;;;;;8.03;2.57;;;9.50;99.90;;;;;;6064507;23;20417;-85
2022/02/23 00:24:11;;;;;;;9.60;3.50;;;9.50;99.90;;;;;;6037226;23;20405;-83
2022/02/23 00:26:44;;;;;;;9.73;3.30;;;9.50;99.90;;;;;;6065920;23;20413;-84
2022/02/23 00:29:23;;;;;;;7.13;3.00;;;9.50;99.90;;;;;;6041727;23;20522;-83
2022/02/23 00:32:22;;;;;;;9.13;2.50;;;9.50;99.90;;;;;;6041693;23;21316;-82
2022/02/23 00:35:06;;;;;;;8.77;2.87;;;9.40;99.90;;;;;;6061874;23;20440;-86
2022/02/23 00:37:39;;;;;;;6.20;2.50;;;9.40;99.90;;;;;;6064113;23;20453;-86
2022/02/23 00:40:09;;;;;;;8.20;3.03;;;9.40;99.90;;;;;;6036914;23;21092;-84
2022/02/23 00:42:59;;;;;;;;;;;;;;;;;;;;;
2022/02/23 00:45:41;;;;;;;10.13;2.70;;;9.30;99.90;;;;;;6072118;23;20441;-85
2022/02/23 00:48:21;;;;;;;13.87;2.70;;;9.20;99.90;;;;;;6076012;23;21217;-85
2022/02/23 00:50:51;;;;;;;6.67;2.37;;;9.30;99.90;;;;;;6074221;23;20476;-86
2022/02/23 00:53:17;;;;;;;9.90;3.10;;;9.30;99.90;;;;;;6072957;23;20417;-86
2022/02/23 00:55:44;;;;;;;6.07;2.70;;;9.20;99.90;;;;;;6048848;23;20542;-87
2022/02/23 00:58:22;;;;;;;6.53;2.93;;;9.20;99.90;;;;;;6072957;23;20490;-85
2022/02/23 01:00:59;;;;;;;8.17;2.33;;;9.20;99.90;;;;;;6072606;23;20389;-87
2022/02/23 01:03:46;;;;;;;6.80;2.60;;;9.10;99.90;;;;;;6048644;23;20401;-87
2022/02/23 01:06:22;;;;;;;9.63;2.60;;;9.10;99.90;;;;;;6046680;23;20874;-86
2022/02/23 01:08:54;;;;;;;9.00;2.97;;;9.10;99.90;;;;;;6070550;23;20449;-86
2022/02/23 01:11:23;;;;;;;9.07;2.70;;;9.10;99.90;;;;;;6076546;23;20413;-86
2022/02/23 01:14:02;;;;;;;8.57;2.60;;;9.00;99.90;;;;;;6073505;23;20480;-86
2022/02/23 01:16:43;;;;;;;7.67;2.33;;;9.00;99.90;;;;;;6052254;23;20413;-86
2022/02/23 01:19:17;;;;;;;4.87;2.63;;;9.00;99.90;;;;;;6055033;23;20420;-86
2022/02/23 01:21:43;;;;;;;7.13;1.83;;;9.00;99.90;;;;;;6070941;23;20438;-85
2022/02/23 01:24:19;;;;;;;8.73;2.37;;;9.00;99.90;;;;;;6048143;23;20497;-85
2022/02/23 01:26:54;;;;;;;6.57;1.90;;;8.90;99.90;;;;;;6046431;23;20515;-85
2022/02/23 01:29:24;;;;;;;14.20;3.50;;;8.90;99.90;;;;;;6062205;23;20449;-84
2022/02/23 01:32:05;;;;;;;5.57;1.70;;;8.90;99.90;;;;;;6037505;23;20501;-82
2022/02/23 01:34:54;;;;;;;7.00;2.70;;;8.90;99.90;;;;;;6057354;23;20438;-83
2022/02/23 01:37:22;;;;;;;8.07;2.63;;;8.90;99.90;;;;;;6035437;23;20418;-85
2022/02/23 01:39:49;;;;;;;11.60;3.13;;;8.90;99.90;;;;;;6087196;23;20431;-86
2022/02/23 01:42:17;;;;;;;7.13;2.43;;;8.80;99.90;;;;;;6077128;23;20414;-85
2022/02/23 01:44:43;;;;;;;9.43;2.20;;;8.80;99.90;;;;;;6074646;23;21012;-85
2022/02/23 01:47:10;;;;;;;8.53;2.00;;;8.90;99.90;;;;;;6072117;23;20414;-84
2022/02/23 01:49:37;;;;;;;7.63;2.30;;;8.80;99.90;;;;;;6073035;23;20434;-85
2022/02/23 01:52:07;;;;;;;6.13;2.10;;;8.80;99.90;;;;;;6074257;23;20416;-84
2022/02/23 01:54:33;;;;;;;5.93;2.50;;;8.80;99.90;;;;;;6074297;23;20439;-85
2022/02/23 01:57:03;;;;;;;3.63;2.00;;;8.70;99.90;;;;;;6073577;23;20437;-84
2022/02/23 01:59:45;;;;;;;6.90;1.80;;;8.70;99.90;;;;;;6073862;23;20433;-82
2022/02/23 02:02:31;;;;;;;6.90;2.47;;;8.70;99.90;;;;;;6052796;23;20799;-86
2022/02/23 02:05:15;;;;;;;7.20;2.07;;;8.70;99.90;;;;;;6050876;23;20500;-86
2022/02/23 02:07:47;;;;;;;5.17;1.93;;;8.70;99.90;;;;;;6045556;23;20409;-85
2022/02/23 02:10:13;;;;;;;6.43;2.00;;;8.70;99.90;;;;;;6072364;23;20409;-86
2022/02/23 02:12:41;;;;;;;10.00;2.27;;;8.60;99.90;;;;;;6071883;23;20937;-87
2022/02/23 02:15:24;;;;;;;11.00;2.20;;;8.60;99.90;;;;;;6072702;23;20777;-85
2022/02/23 02:17:55;;;;;;;8.53;3.20;;;8.60;99.90;;;;;;6073609;23;20416;-85
2022/02/23 02:20:21;;;;;;;5.40;2.53;;;8.60;99.90;;;;;;6074021;23;20409;-85
2022/02/23 02:23:17;;;;;;;5.50;1.90;;;8.60;99.90;;;;;;6048743;23;20902;-85
2022/02/23 02:25:44;;;;;;;10.93;2.27;;;8.60;99.90;;;;;;6071380;23;20433;-85
2022/02/23 02:28:34;;;;;;;10.30;2.00;;;8.60;99.90;;;;;;6039771;23;20445;-84
2022/02/23 02:31:18;;;;;;;8.10;2.80;;;8.60;99.90;;;;;;6040165;23;20472;-86
2022/02/23 02:34:12;;;;;;;6.70;2.30;;;8.50;99.90;;;;;;6062339;23;20428;-86
2022/02/23 02:36:39;;;;;;;7.97;2.63;;;8.50;99.90;;;;;;6062503;23;20428;-86
2022/02/23 02:39:07;;;;;;;4.40;2.33;;;8.50;99.90;;;;;;6045448;23;20750;-85
2022/02/23 02:41:35;;;;;;;8.33;2.57;;;8.50;99.90;;;;;;6073677;23;20414;-84
2022/02/23 02:44:03;;;;;;;9.77;2.37;;;8.50;99.90;;;;;;6073958;23;20481;-85
2022/02/23 02:46:30;;;;;;;10.27;2.73;;;8.50;99.90;;;;;;6075096;23;21037;-84
2022/02/23 02:48:57;;;;;;;6.00;2.10;;;8.50;99.90;;;;;;6074174;23;20440;-84
2022/02/23 02:51:24;;;;;;;6.60;2.07;;;8.40;99.90;;;;;;6074775;23;20445;-84
2022/02/23 02:53:54;;;;;;;9.03;2.07;;;8.40;99.90;;;;;;6074980;23;20702;-85
2022/02/23 02:56:32;;;;;;;10.73;2.30;;;8.40;99.90;;;;;;6075175;23;20492;-87
2022/02/23 02:59:07;;;;;;;4.27;2.10;;;8.40;99.90;;;;;;6050488;23;20455;-86
2022/02/23 03:01:51;;;;;;;9.03;2.80;;;8.40;99.90;;;;;;6054018;23;20478;-86
2022/02/23 03:04:17;;;;;;;9.17;2.13;;;8.30;99.90;;;;;;6076427;23;20438;-86
2022/02/23 03:06:55;;;;;;;5.50;2.97;;;8.30;99.90;;;;;;6052529;23;20441;-84
2022/02/23 03:09:53;;;;;;;9.30;2.00;;;8.30;99.90;;;;;;6071179;23;20452;-84
2022/02/23 03:12:32;;;;;;;7.40;2.47;;;8.30;99.90;;;;;;6060591;23;20687;-85
2022/02/23 03:15:07;;;;;;;12.60;2.70;;;8.30;99.90;;;;;;6072484;23;20729;-84
2022/02/23 03:17:45;;;;;;;5.57;2.10;;;8.30;99.90;;;;;;6071877;23;20409;-84
2022/02/23 03:20:19;;;;;;;7.93;2.47;;;8.30;99.90;;;;;;6052903;23;20417;-88
2022/02/23 03:23:09;;;;;;;6.73;2.47;;;8.20;99.90;;;;;;6061547;23;20413;-82
2022/02/23 03:25:41;;;;;;;7.83;2.10;;;8.20;99.90;;;;;;6088007;23;20562;-85
2022/02/23 03:28:19;;;;;;;6.80;1.83;;;8.20;99.90;;;;;;6130127;23;20890;-84
2022/02/23 03:30:55;;;;;;;10.07;2.07;;;8.20;99.90;;;;;;6107971;23;20479;-86
2022/02/23 03:33:43;;;;;;;;;;;;;;;;;;;;;
2022/02/23 03:36:42;;;;;;;6.17;2.70;;;8.20;99.90;;;;;;6107085;23;20920;-84
2022/02/23 03:39:12;;;;;;;6.37;2.30;;;8.20;99.90;;;;;;6079448;23;20809;-85
2022/02/23 03:41:47;;;;;;;7.93;2.77;;;8.20;99.90;;;;;;6078607;23;20416;-85
2022/02/23 03:44:17;;;;;;;5.67;2.87;;;8.10;99.90;;;;;;6089273;23;20787;-85
2022/02/23 03:47:12;;;;;;;6.60;2.47;;;8.10;99.90;;;;;;6085415;23;20472;-86
2022/02/23 03:49:58;;;;;;;8.70;2.50;;;8.10;99.90;;;;;;6082079;23;20515;-86
2022/02/23 03:52:54;;;;;;;5.87;1.90;;;8.10;99.90;;;;;;6077998;23;20416;-86
2022/02/23 03:55:27;;;;;;;6.37;2.20;;;8.10;99.90;;;;;;6077078;23;20528;-86
2022/02/23 03:58:13;;;;;;;8.07;2.87;;;8.10;99.90;;;;;;6079459;23;20416;-85
2022/02/23 04:01:00;;;;;;;7.57;2.40;;;8.10;99.90;;;;;;6081895;23;20408;-86
2022/02/23 04:03:32;;;;;;;7.30;2.40;;;8.10;99.90;;;;;;6080943;23;20420;-86
2022/02/23 04:06:08;;;;;;;11.23;2.63;;;8.10;99.90;;;;;;6076428;23;20495;-84
2022/02/23 04:09:11;;;;;;;8.47;2.53;;;8.00;99.90;;;;;;6074796;23;20452;-86
2022/02/23 04:11:50;;;;;;;7.73;3.30;;;8.00;99.90;;;;;;6100985;23;20388;-83
2022/02/23 04:14:39;;;;;;;10.30;3.10;;;8.00;99.90;;;;;;6057764;23;20537;-83
2022/02/23 04:17:22;;;;;;;5.43;2.60;;;8.00;99.90;;;;;;6080388;23;20454;-85
2022/02/23 04:20:12;;;;;;;11.07;2.77;;;8.00;99.90;;;;;;6088366;23;20409;-86
2022/02/23 04:29:13;;;;;;;7.90;3.07;;;7.90;99.90;;;;;;6104242;23;20564;-83
2022/02/23 04:31:52;;;;;;;12.53;2.77;;;7.90;99.90;;;;;;6077249;23;20405;-85
2022/02/23 04:34:53;;;;;;;13.13;2.73;;;7.90;99.90;;;;;;6099843;23;20440;-84
2022/02/23 04:38:08;;;;;;;7.00;2.40;;;7.90;99.90;;;;;;6101059;23;20449;-85
2022/02/23 04:40:58;;;;;;;7.37;2.77;;;7.80;99.90;;;;;;6104628;23;20460;-85
2022/02/23 04:43:39;;;;;;;6.73;2.70;;;7.80;99.90;;;;;;6086470;23;20419;-86
2022/02/23 04:46:19;;;;;;;5.90;2.60;;;7.80;99.90;;;;;;6083245;23;20448;-85
2022/02/23 04:49:05;;;;;;;11.00;3.03;;;7.80;99.90;;;;;;6080651;23;20448;-84
2022/02/23 04:52:01;;;;;;;6.73;3.20;;;7.80;99.90;;;;;;6086095;23;20424;-86
2022/02/23 04:54:43;;;;;;;6.23;2.60;;;7.80;99.90;;;;;;6105251;23;20839;-87
2022/02/23 04:57:53;;;;;;;16.03;3.53;;;7.80;99.90;;;;;;6079877;23;20389;-86
2022/02/23 05:00:41;;;;;;;5.90;2.37;;;7.80;99.90;;;;;;6101558;23;20558;-83
2022/02/23 05:03:34;;;;;;;6.40;2.60;;;7.80;99.90;;;;;;6080541;23;20436;-84
2022/02/23 05:06:27;;;;;;;7.30;2.93;;;7.70;99.90;;;;;;6097777;23;20451;-85
2022/02/23 05:09:06;;;;;;;6.97;2.73;;;7.70;99.90;;;;;;6063252;23;21019;-84
2022/02/23 05:12:13;;;;;;;7.70;3.40;;;7.70;99.90;;;;;;6077967;23;20479;-85
2022/02/23 05:14:51;;;;;;;13.87;2.73;;;7.70;99.90;;;;;;6100993;23;20451;-87
2022/02/23 05:17:33;;;;;;;7.93;2.93;;;7.70;99.90;;;;;;6077482;23;20409;-86
2022/02/23 05:20:11;;;;;;;4.77;2.50;;;7.70;99.90;;;;;;6078254;23;20417;-86
2022/02/23 05:23:15;;;;;;;7.00;2.60;;;7.60;99.90;;;;;;6081565;23;20798;-86
2022/02/23 05:26:01;;;;;;;8.33;3.00;;;7.60;99.90;;;;;;6076762;23;20456;-86
2022/02/23 05:28:45;;;;;;;7.17;3.00;;;7.60;99.90;;;;;;6079836;23;20454;-84
2022/02/23 05:31:20;;;;;;;7.30;3.27;;;7.70;99.90;;;;;;6103778;23;20511;-85
2022/02/23 05:34:12;;;;;;;8.37;2.80;;;7.70;99.90;;;;;;6069636;23;20407;-85
2022/02/23 05:36:51;;;;;;;8.30;2.73;;;7.70;99.90;;;;;;6077262;23;20416;-86
2022/02/23 05:39:26;;;;;;;8.57;2.60;;;7.60;99.90;;;;;;6078546;23;20408;-85
2022/02/23 05:42:04;;;;;;;7.50;2.77;;;7.60;99.90;;;;;;6079802;23;20452;-84
2022/02/23 05:44:54;;;;;;;6.37;2.60;;;7.60;99.90;;;;;;6104311;23;20952;-86
2022/02/23 05:47:57;;;;;;;11.37;3.23;;;7.60;99.90;;;;;;6081541;23;20420;-84
2022/02/23 05:50:48;;;;;;;7.63;2.77;;;7.60;99.90;;;;;;6081161;23;20444;-83
2022/02/23 05:53:48;;;;;;;7.40;3.17;;;7.60;99.90;;;;;;6102284;23;20404;-85
2022/02/23 05:56:28;;;;;;;8.43;2.63;;;7.60;99.90;;;;;;6103260;23;20428;-85
2022/02/23 05:59:26;;;;;;;7.43;2.90;;;7.60;99.90;;;;;;6103951;23;20420;-85
2022/02/23 06:02:28;;;;;;;6.43;3.30;;;7.60;99.90;;;;;;6095450;23;20492;-85
2022/02/23 06:05:06;;;;;;;4.17;2.77;;;7.50;99.90;;;;;;6095920;23;20439;-85
2022/02/23 06:07:46;;;;;;;7.50;3.67;;;7.60;99.90;;;;;;6097880;23;20443;-86
2022/02/23 06:10:43;;;;;;;11.77;2.40;;;7.70;99.90;;;;;;6122345;23;20435;-87
2022/02/23 06:13:21;;;;;;;10.10;3.17;;;7.70;99.90;;;;;;6097577;23;20425;-86
2022/02/23 06:15:54;;;;;;;9.30;2.77;;;7.70;99.90;;;;;;6121847;23;20425;-85
2022/02/23 06:18:36;;;;;;;11.53;3.13;;;7.60;99.90;;;;;;6120029;23;20420;-84
2022/02/23 06:21:12;;;;;;;8.30;3.83;;;7.60;99.90;;;;;;6095941;23;20413;-87
2022/02/23 06:23:47;;;;;;;12.43;4.47;;;7.60;99.90;;;;;;6117851;23;20423;-87
2022/02/23 06:26:50;;;;;;;12.00;3.83;;;7.60;99.90;;;;;;6095516;23;20503;-84
2022/02/23 06:29:22;;;;;;;15.33;5.10;;;7.50;99.90;;;;;;6094581;23;20455;-84
2022/02/23 06:31:58;;;;;;;13.57;4.57;;;7.60;99.90;;;;;;6092608;23;20405;-84
2022/02/23 06:34:38;;;;;;;9.97;3.07;;;7.60;99.90;;;;;;6095560;23;20432;-85
2022/02/23 06:37:12;;;;;;;7.80;3.00;;;7.50;99.90;;;;;;6096956;23;20433;-85
2022/02/23 06:39:51;;;;;;;8.90;3.40;;;7.50;99.90;;;;;;6097705;23;20408;-86
2022/02/23 06:42:26;;;;;;;8.40;3.60;;;7.50;99.90;;;;;;6118179;23;20427;-85
2022/02/23 06:45:11;;;;;;;11.47;3.80;;;7.70;99.90;;;;;;6095478;23;20464;-86
2022/02/23 06:47:55;;;;;;;8.03;3.30;;;7.90;99.90;;;;;;6093351;23;20416;-85
2022/02/23 06:50:32;;;;;;;9.87;4.43;;;8.10;99.90;;;;;;6092847;23;20451;-82
2022/02/23 06:56:16;;;;;;;10.47;4.00;;;7.80;99.90;;;;;;6108173;23;20428;-85
2022/02/23 06:59:12;;;;;;;7.50;3.70;;;7.70;99.90;;;;;;6079036;23;20416;-88
2022/02/23 07:01:49;;;;;;;15.60;4.70;;;7.80;99.90;;;;;;6075286;23;20413;-85
2022/02/23 07:04:29;;;;;;;12.17;3.57;;;7.70;99.90;;;;;;6077943;23;20438;-84
2022/02/23 07:07:12;;;;;;;8.47;3.17;;;7.80;99.90;;;;;;6081598;23;20440;-85
2022/02/23 07:09:46;;;;;;;8.93;3.47;;;7.60;99.90;;;;;;6080245;23;20455;-83
2022/02/23 07:12:29;;;;;;;8.87;3.43;;;8.10;99.90;;;;;;6104469;23;20419;-86
2022/02/23 07:15:15;;;;;;;8.90;3.30;;;8.30;99.90;;;;;;6105578;23;20453;-86
2022/02/23 07:17:55;;;;;;;8.57;3.47;;;8.30;99.90;;;;;;6095587;23;20397;-86
2022/02/23 07:20:33;;;;;;;10.80;3.10;;;8.30;99.90;;;;;;6119327;23;20408;-87
2022/02/23 07:23:26;;;;;;;8.13;3.07;;;8.30;99.90;;;;;;6098579;23;20418;-83
2022/02/23 07:26:09;;;;;;;7.57;2.47;;;8.30;99.90;;;;;;6093439;23;20432;-86
2022/02/23 07:28:50;;;;;;;8.80;4.13;;;8.30;99.90;;;;;;6096594;23;20434;-85
2022/02/23 07:31:31;;;;;;;8.63;3.40;;;8.70;99.90;;;;;;6097401;23;20409;-84
2022/02/23 07:34:21;;;;;;;4.73;2.53;;;10.80;99.70;;;;;;6091839;23;20464;-86
2022/02/23 07:36:59;;;;;;;11.23;3.30;;;12.70;94.90;;;;;;6116826;23;20404;-86
2022/02/23 07:39:40;;;;;;;7.43;3.00;;;13.90;91.50;;;;;;6116396;23;20424;-85
2022/02/23 07:42:23;;;;;;;;;;;;;;;;;;;;;
2022/02/23 07:45:19;;;;;;;12.40;3.50;;;15.90;83.20;;;;;;5998656;23;20552;-83
2022/02/23 07:51:43;;;;;;;13.17;4.63;;;17.10;77.30;;;;;;5967033;24;20404;-86
2022/02/23 07:54:19;;;;;;;11.90;3.77;;;15.90;77.80;;;;;;6001117;23;20411;-84
2022/02/23 07:57:14;;;;;;;9.27;4.03;;;15.00;80.80;;;;;;6019609;23;20467;-83
2022/02/23 08:00:05;;;;;;;11.20;4.93;;;14.60;82.30;;;;;;6013098;23;21275;-86
2022/02/23 08:02:41;;;;;;;9.30;4.43;;;14.20;83.70;;;;;;6012744;23;21041;-85
2022/02/23 08:05:19;;;;;;;12.33;6.70;;;13.90;86.30;;;;;;6053414;23;20890;-86
2022/02/23 08:08:02;;;;;;;13.13;5.30;;;13.90;87.30;;;;;;6105221;23;20494;-85
2022/02/23 08:10:39;;;;;;;12.23;4.90;;;13.90;87.40;;;;;;6081101;23;20471;-85
2022/02/23 08:13:19;;;;;;;9.90;4.40;;;14.10;87.70;;;;;;6106444;23;20528;-88
2022/02/23 08:19:51;;;;;;;13.53;4.53;;;12.40;88.80;;;;;;6105443;23;20435;-85
2022/02/23 08:22:29;;;;;;;13.30;4.40;;;11.10;92.30;;;;;;6100531;23;20479;-83
2022/02/23 08:28:11;;;;;;;7.90;3.60;;;10.80;94.60;;;;;;6004190;23;20502;-81
2022/02/23 08:30:55;;;;;;;11.43;4.57;;;10.40;95.00;;;;;;5994530;23;20472;-88
2022/02/23 08:33:40;;;;;;;9.40;5.00;;;10.50;95.70;;;;;;6004437;23;20946;-85
2022/02/23 08:37:00;;;;;;;10.93;3.90;;;10.10;95.90;;;;;;5996157;23;20451;-85
2022/02/23 08:42:54;;;;;;;10.23;3.20;;;10.30;96.70;;;;;;5993193;23;20423;-86
2022/02/23 08:48:44;;;;;;;8.70;3.77;;;10.30;97.00;;;;;;5972868;23;20550;-85
2022/02/23 08:51:29;;;;;;;8.53;3.67;;;10.00;97.50;;;;;;6018695;23;20866;-84
2022/02/23 08:54:11;;;;;;;14.00;5.07;;;10.30;97.40;;;;;;5994959;23;20427;-85
2022/02/23 08:56:58;;;;;;;9.43;5.37;;;10.20;97.20;;;;;;6084032;23;20428;-85
2022/02/23 08:59:56;;;;;;;16.77;4.40;;;10.10;98.00;;;;;;6105703;23;20496;-86
2022/02/23 09:02:40;;;;;;;15.47;4.37;;;10.00;98.00;;;;;;6083163;23;20504;-85
2022/02/23 09:05:31;;;;;;;10.00;4.20;;;10.20;98.20;;;;;;6105364;23;20448;-84
2022/02/23 09:08:30;;;;;;;6.57;3.70;;;10.10;98.20;;;;;;6077295;23;20460;-84
2022/02/23 09:11:11;;;;;;;8.63;3.33;;;9.90;99.20;;;;;;6101551;23;20484;-85
2022/02/23 09:13:51;;;;;;;7.77;3.40;;;9.80;99.50;;;;;;6097957;23;20524;-82
2022/02/23 09:16:48;;;;;;;10.80;4.13;;;10.00;98.90;;;;;;6101663;23;20535;-84
2022/02/23 09:19:29;;;;;;;9.83;5.37;;;10.00;98.70;;;;;;5983012;23;20892;-82
2022/02/23 09:22:02;;;;;;;12.93;3.90;;;10.20;98.40;;;;;;6017357;23;20955;-82
2022/02/23 09:24:38;;;;;;;9.30;3.93;;;10.40;98.10;;;;;;6014161;23;20541;-83
2022/02/23 09:27:15;;;;;;;17.37;4.60;;;10.70;97.60;;;;;;6018692;23;20434;-82
2022/02/23 09:29:57;;;;;;;8.30;3.90;;;10.70;97.40;;;;;;6018180;23;20450;-84
2022/02/23 09:32:54;;;;;;;;;;;;;;;;;;;;;
2022/02/23 09:36:00;;;;;;;8.53;3.77;;;10.10;97.80;;;;;;6042073;23;20514;-82
2022/02/23 09:38:51;;;;;;;7.47;3.53;;;10.00;97.90;;;;;;6024577;23;20420;-83
2022/02/23 09:41:56;;;;;;;10.60;3.53;;;10.00;97.80;;;;;;6027510;23;20470;-84
2022/02/23 09:44:38;;;;;;;10.60;2.90;;;10.10;98.00;;;;;;6021364;23;20434;-84
2022/02/23 09:47:18;;;;;;;10.83;3.53;;;10.20;98.20;;;;;;6014288;23;20513;-84
2022/02/23 09:49:56;;;;;;;10.83;3.33;;;11.00;96.40;;;;;;6060657;23;20440;-84
2022/02/23 09:52:50;;;;;;;8.80;3.30;;;11.30;95.50;;;;;;6082511;23;20405;-86
2022/02/23 09:56:00;;;;;;;8.03;3.33;;;11.30;95.00;;;;;;6066526;23;20472;-86
2022/02/23 09:58:43;;;;;;;12.27;3.23;;;11.20;95.40;;;;;;6081651;23;20409;-87
2022/02/23 10:01:30;;;;;;;11.87;3.33;;;11.00;95.30;;;;;;6097017;23;20744;-85
2022/02/23 10:04:07;;;;;;;8.33;2.70;;;10.90;96.20;;;;;;6102396;23;20440;-83
2022/02/23 10:07:12;;;;;;;8.03;2.97;;;13.40;92.20;;;;;;6109978;23;20375;-85
2022/02/23 10:14:13;;;;;;;6.97;2.50;;;15.70;79.20;;;;;;5992684;23;20387;-88
2022/02/23 10:17:02;;;;;;;6.57;3.40;;;16.90;71.80;;;;;;5995287;24;20396;-83
2022/02/23 10:20:01;;;;;;;8.50;3.80;;;16.90;69.10;;;;;;6103544;23;20431;-85
2022/02/23 10:22:58;;;;;;;8.43;2.40;;;16.20;71.30;;;;;;6086031;23;20416;-84
2022/02/23 10:26:05;;;;;;;4.90;2.30;;;15.40;72.60;;;;;;6102053;23;20403;-83
2022/02/23 10:28:41;;;;;;;6.53;2.57;;;14.50;75.80;;;;;;6100666;23;20449;-86
2022/02/23 10:31:37;;;;;;;6.67;2.63;;;13.90;78.90;;;;;;6096452;23;20517;-84
2022/02/23 10:34:22;;;;;;;14.50;2.80;;;13.80;79.70;;;;;;6103940;23;20411;-84
2022/02/23 10:37:14;;;;;;;9.90;2.70;;;13.60;79.60;;;;;;6102121;23;20486;-82
2022/02/23 10:40:04;;;;;;;4.50;2.07;;;13.40;80.90;;;;;;6100856;23;20400;-84
2022/02/23 10:42:47;;;;;;;7.47;2.87;;;13.40;80.50;;;;;;6077863;23;20416;-84
2022/02/23 10:45:29;;;;;;;5.20;1.83;;;12.90;80.90;;;;;;6100796;23;20807;-84
2022/02/23 10:48:39;;;;;;;6.80;2.20;;;13.00;82.00;;;;;;6081942;23;20415;-83
2022/02/23 10:51:30;;;;;;;6.43;2.37;;;13.30;80.30;;;;;;6059999;23;20440;-85
2022/02/23 10:54:12;;;;;;;9.60;2.37;;;13.00;79.00;;;;;;6102822;23;20496;-85
2022/02/23 10:56:59;;;;;;;6.80;2.67;;;13.00;79.90;;;;;;6101326;23;20496;-84
2022/02/23 10:59:37;;;;;;;6.40;2.77;;;12.80;80.30;;;;;;6102983;23;20752;-86
2022/02/23 11:02:21;;;;;;;11.90;3.30;;;12.80;81.40;;;;;;6098594;23;20421;-85
2022/02/23 11:05:23;;;;;;;7.10;1.97;;;12.90;81.90;;;;;;6102995;23;20440;-83
2022/02/23 11:08:15;;;;;;;4.87;1.90;;;13.20;80.10;;;;;;6074305;23;20425;-83
2022/02/23 11:10:46;;;;;;;6.20;2.00;;;12.70;80.70;;;;;;6103710;23;20451;-85
2022/02/23 11:13:23;;;;;;;4.50;1.90;;;12.90;80.40;;;;;;6079645;23;21054;-82
2022/02/23 11:16:09;;;;;;;8.27;2.17;;;12.90;78.10;;;;;;6106449;23;20735;-85
2022/02/23 11:18:59;;;;;;;5.63;1.60;;;12.50;77.80;;;;;;6080791;23;20493;-85
2022/02/23 11:21:45;;;;;;;3.73;1.67;;;12.50;78.80;;;;;;6034904;23;20734;-85
2022/02/23 11:24:43;;;;;;;7.50;2.20;;;12.30;78.90;;;;;;6076704;23;20555;-86
2022/02/23 11:27:43;;;;;;;8.27;1.90;;;12.30;79.50;;;;;;6046323;23;20395;-84
2022/02/23 11:30:34;;;;;;;3.93;1.40;;;13.00;77.90;;;;;;6046756;23;20526;-85
2022/02/23 11:33:11;;;;;;;5.80;2.00;;;12.60;77.90;;;;;;6047024;23;20481;-85
2022/02/23 11:36:29;;;;;;;12.53;2.30;;;12.50;78.60;;;;;;6045476;23;20450;-83
2022/02/23 11:39:05;;;;;;;4.57;1.70;;;13.20;78.20;;;;;;6046517;23;20418;-86
2022/02/23 11:42:07;;;;;;;7.17;1.90;;;13.00;78.10;;;;;;6048354;23;20410;-83
2022/02/23 11:45:21;;;;;;;6.40;2.13;;;12.50;80.20;;;;;;6063454;23;20452;-89
2022/02/23 11:48:09;;;;;;;5.10;1.33;;;12.30;80.50;;;;;;5980054;24;20396;-86
2022/02/23 11:51:12;;;;;;;8.77;2.00;;;12.10;82.10;;;;;;5958332;24;20540;-85
2022/02/23 11:53:44;;;;;;;4.90;1.83;;;12.20;83.10;;;;;;5954417;24;20416;-88
2022/02/23 11:56:20;;;;;;;5.40;2.10;;;12.60;83.00;;;;;;5934734;24;20421;-88
2022/02/23 12:00:00;;;;;;;5.50;1.97;;;13.00;80.90;;;;;;5947623;24;20424;-90
2022/02/23 12:06:24;;;;;;;;;;;;;;;;;;;;;
2022/02/23 12:09:59;;;;;;;7.27;1.50;;;13.30;78.20;;;;;;6131131;23;20431;-86
2022/02/23 12:12:51;;;;;;;8.93;1.53;;;13.20;79.00;;;;;;6006576;23;20640;-85
2022/02/23 12:15:46;;;;;;;5.93;1.90;;;13.30;79.30;;;;;;6107053;23;20454;-85
2022/02/23 12:18:22;;;;;;;4.93;1.57;;;13.00;80.10;;;;;;6131035;23;20419;-86
2022/02/23 12:21:28;;;;;;;4.27;1.50;;;13.00;79.70;;;;;;6130481;23;20422;-85
2022/02/23 12:24:36;;;;;;;4.90;1.50;;;12.90;79.80;;;;;;6097047;23;20444;-87
2022/02/23 12:27:41;;;;;;;6.63;1.70;;;13.10;79.10;;;;;;6105684;23;20431;-85
2022/02/23 12:30:38;;;;;;;3.67;1.43;;;12.90;78.70;;;;;;6114747;23;20443;-90
2022/02/23 12:33:51;;;;;;;4.47;1.60;;;12.60;79.10;;;;;;6130500;23;20419;-85
2022/02/23 12:36:48;;;;;;;7.30;1.47;;;12.70;79.30;;;;;;6106482;23;20470;-85
2022/02/23 12:39:37;;;;;;;1.50;1.23;;;12.80;78.90;;;;;;6126851;23;20384;-82
2022/02/23 12:42:31;;;;;;;2.33;1.33;;;12.80;78.10;;;;;;6130837;23;20420;-85
2022/02/23 12:45:37;;;;;;;;;;;;;;;;;;;;;
2022/02/23 12:48:50;;;;;;;5.50;1.70;;;12.70;76.50;;;;;;6146160;23;20400;-87
2022/02/23 12:51:55;;;;;;;3.03;1.27;;;13.10;75.50;;;;;;6129315;23;20508;-88
2022/02/23 12:54:56;;;;;;;4.23;2.17;;;13.60;73.10;;;;;;6122540;23;20440;-85
2022/02/23 12:58:02;;;;;;;;;;;;;;;;;;;;;
2022/02/23 13:01:23;;;;;;;5.93;1.30;;;13.70;72.80;;;;;;6134609;23;20428;-85
2022/02/23 13:04:14;;;;;;;5.30;1.83;;;13.70;73.60;;;;;;6131952;23;20413;-86
2022/02/23 13:07:22;;;;;;;;;;;;;;;;;;;;;
2022/02/23 13:10:19;;;;;;;3.40;1.40;;;13.60;74.10;;;;;;6132452;23;20408;-86
2022/02/23 13:16:33;;;;;;;3.10;1.87;;;12.90;76.70;;;;;;6127366;23;20519;-87
2022/02/23 13:23:26;;;;;;;3.10;1.10;;;13.00;78.30;;;;;;6116498;23;20585;-86
2022/02/23 13:26:56;;;;;;;9.10;7.63;;;13.30;77.40;;;;;;6108438;23;20475;-87
2022/02/23 13:30:16;;;;;;;3.20;2.00;;;13.80;73.80;;;;;;6102925;23;20416;-84
2022/02/23 13:33:23;;;;;;;7.30;2.20;;;13.60;74.20;;;;;;6126961;23;20415;-87
2022/02/23 13:36:22;;;;;;;4.67;1.30;;;13.50;73.70;;;;;;6089180;23;20439;-85
2022/02/23 13:39:38;;;;;;;;;;;;;;;;;;;;;
2022/02/23 13:42:57;;;;;;;2.63;1.30;;;13.90;73.40;;;;;;6119750;23;20440;-87
2022/02/23 13:46:08;;;;;;;5.17;1.87;;;13.80;73.50;;;;;;6076676;23;20414;-86
2022/02/23 13:49:27;;;;;;;3.03;1.73;;;14.80;71.80;;;;;;6121799;23;20752;-87
2022/02/23 13:52:40;;;;;;;2.70;1.63;;;15.00;68.30;;;;;;6075534;23;20443;-86
2022/02/23 13:55:27;;;;;;;6.80;2.10;;;14.70;69.10;;;;;;6110094;23;20439;-86
2022/02/23 13:58:22;;;;;;;4.50;1.70;;;14.30;69.20;;;;;;6091396;23;20462;-85
2022/02/23 14:01:09;;;;;;;9.20;2.07;;;14.20;69.80;;;;;;6114640;23;20537;-87
2022/02/23 14:03:56;;;;;;;2.70;1.87;;;14.20;70.30;;;;;;6115685;23;20484;-89
2022/02/23 14:06:46;;;;;;;4.27;1.80;;;13.80;71.60;;;;;;6096418;23;20407;-85
2022/02/23 14:09:36;;;;;;;5.33;2.10;;;14.00;72.30;;;;;;6123742;23;20482;-86
2022/02/23 14:16:12;;;;;;;3.63;1.70;;;14.00;69.80;;;;;;6032376;23;20438;-88
2022/02/23 14:19:32;;;;;;;2.90;1.20;;;13.90;69.20;;;;;;6124387;23;21060;-86
2022/02/23 14:23:05;;;;;;;5.80;1.97;;;13.80;69.60;;;;;;5979513;23;20792;-87
2022/02/23 14:26:23;;;;;;;;;;;;;;;;;;;;;
2022/02/23 14:29:20;;;;;;;;;;;;;;;;;;;;;
2022/02/23 14:32:53;;;;;;;3.10;1.30;;;13.20;72.50;;;;;;6121679;23;20470;-87
2022/02/23 14:35:51;;;;;;;;;;;;;;;;;;;;;
2022/02/23 14:39:09;;;;;;;3.70;1.57;;;13.70;68.60;;;;;;6098109;23;20899;-86
2022/02/23 14:42:16;;;;;;;4.50;1.33;;;13.80;67.50;;;;;;6001270;23;20467;-87
2022/02/23 14:44:56;;;;;;;3.30;1.23;;;13.50;69.00;;;;;;6001143;23;20446;-86
2022/02/23 14:48:02;;;;;;;3.63;1.70;;;13.80;69.10;;;;;;6000957;23;20427;-87
2022/02/23 14:51:19;;;;;;;;;;;;;;;;;;;;;
2022/02/23 14:54:45;;;;;;;2.33;1.30;;;13.90;69.00;;;;;;6004621;23;20433;-87
2022/02/23 14:57:53;;;;;;;4.77;1.73;;;13.90;70.40;;;;;;6000485;23;20502;-86
2022/02/23 15:01:06;;;;;;;2.93;1.40;;;13.80;70.90;;;;;;6011178;23;20419;-86
2022/02/23 15:04:15;;;;;;;;;;;;;;;;;;;;;
2022/02/23 15:07:05;;;;;;;5.60;1.30;;;13.70;70.60;;;;;;5997364;23;20911;-86
2022/02/23 15:09:55;;;;;;;3.33;1.60;;;13.70;70.40;;;;;;6019947;23;20415;-87
2022/02/23 15:12:54;;;;;;;2.97;1.13;;;13.60;71.10;;;;;;5994305;23;20455;-85
2022/02/23 15:15:42;;;;;;;3.10;1.40;;;13.60;71.20;;;;;;6021999;23;20444;-85
2022/02/23 15:19:05;;;;;;;3.00;1.23;;;13.60;71.70;;;;;;6040231;23;20426;-83
2022/02/23 15:21:55;;;;;;;5.17;1.63;;;13.60;71.30;;;;;;6110476;23;20426;-88
2022/02/23 15:24:53;;;;;;;2.13;1.63;;;13.50;72.20;;;;;;6073282;23;20446;-86
2022/02/23 15:42:30;;;;;;;3.23;1.27;;;13.50;69.80;;;;;;6114820;23;20814;-84
2022/02/23 15:45:41;;;;;;;3.73;1.00;;;13.40;69.40;;;;;;6052281;23;20506;-84
2022/02/23 15:53:17;;;;;;;3.13;1.47;;;13.40;69.80;;;;;;6075274;23;20949;-83
2022/02/23 15:56:30;;;;;;;6.67;2.77;;;13.30;71.00;;;;;;6047432;23;20450;-88
2022/02/23 15:59:43;;;;;;;4.13;1.83;;;13.40;70.00;;;;;;6080943;23;20364;-85
2022/02/23 16:02:26;;;;;;;4.67;1.70;;;13.30;70.80;;;;;;6097241;23;20420;-85